Time;durP1;ratioP1;P1;durP2;ratioP2;P2;SDS_P1;SDS_P2;PMS_P1;PMS_P2;Temp;Humidity;BMP_temperature;BMP_pressure;BME280_temperature;BME280_humidity;BME280_pressure;Samples;Min_cycle;Max_cycle;Signal;HPM_P1;HPM_P2
2022/01/13 00:02:28;;;;;;;;;;;-11.30;99.90;;;;;;5114000;28;19914;-73
2022/01/13 00:04:54;;;;;;;;;;;-11.30;99.90;;;;;;5112115;28;19923;-73
2022/01/13 00:07:19;;;;;;;;;;;-11.20;99.90;;;;;;5113620;28;19911;-72
2022/01/13 00:09:45;;;;;;;;;;;-11.20;99.90;;;;;;5113561;28;19955;-73
2022/01/13 00:12:12;;;;;;;;;;;-11.20;99.90;;;;;;5111786;28;20282;-74
2022/01/13 00:14:51;;;;;;;;;;;-11.20;99.90;;;;;;5113387;28;19930;-74
2022/01/13 00:25:18;;;;;;;;;;;-11.00;99.90;;;;;;5113463;28;19916;-73
2022/01/13 00:27:49;;;;;;;;;;;-11.00;99.90;;;;;;5113231;28;19915;-73
2022/01/13 00:30:17;;;;;;;;;;;-10.90;99.90;;;;;;5113061;28;19916;-73
2022/01/13 00:32:44;;;;;;;;;;;-10.90;99.90;;;;;;5113221;28;19908;-74
2022/01/13 00:35:10;;;;;;;;;;;-10.90;99.90;;;;;;5113286;28;19916;-73
2022/01/13 00:37:37;;;;;;;;;;;-11.00;99.90;;;;;;5112940;28;19908;-74
2022/01/13 00:40:06;;;;;;;;;;;-11.00;99.90;;;;;;5111130;28;20018;-74
2022/01/13 00:42:32;;;;;;;;;;;-10.90;99.90;;;;;;5112902;28;20430;-73
2022/01/13 00:44:58;;;;;;;;;;;-10.90;99.90;;;;;;5111400;28;19923;-73
2022/01/13 00:47:27;;;;;;;;;;;-10.90;99.90;;;;;;5111540;28;19915;-73
2022/01/13 00:49:52;;;;;;;;;;;-10.90;99.90;;;;;;5113004;28;19966;-73
2022/01/13 00:52:18;;;;;;;;;;;-10.80;99.90;;;;;;5112931;28;19951;-73
2022/01/13 00:54:44;;;;;;;;;;;-10.90;99.90;;;;;;5112805;28;20352;-73
2022/01/13 00:57:09;;;;;;;;;;;-10.80;99.90;;;;;;5112814;28;20403;-73
2022/01/13 00:59:35;;;;;;;;;;;-10.90;99.90;;;;;;5112362;28;19942;-73
2022/01/13 01:02:00;;;;;;;;;;;-11.00;99.90;;;;;;5111223;28;19914;-74
2022/01/13 01:04:26;;;;;;;;;;;-10.90;99.90;;;;;;5112570;28;20255;-74
2022/01/13 01:06:52;;;;;;;;;;;-10.90;99.90;;;;;;5111188;28;19921;-73
2022/01/13 01:09:27;;;;;;;;;;;-11.00;99.90;;;;;;5110995;28;20451;-74
2022/01/13 01:11:55;;;;;;;;;;;-11.00;99.90;;;;;;5112930;28;19908;-73
2022/01/13 01:14:21;;;;;;;;;;;-10.90;99.90;;;;;;5112030;28;19923;-73
2022/01/13 01:16:46;;;;;;;;;;;-10.90;99.90;;;;;;5112468;28;20123;-73
2022/01/13 01:19:13;;;;;;;;;;;-10.90;99.90;;;;;;5112512;28;19916;-72
2022/01/13 01:24:28;;;;;;;;;;;-10.90;99.90;;;;;;5111276;28;19920;-73
2022/01/13 01:27:01;;;;;;;;;;;-10.90;99.90;;;;;;5111107;28;19912;-74
2022/01/13 01:29:34;;;;;;;;;;;-10.90;99.90;;;;;;5110232;28;19965;-73
2022/01/13 01:32:01;;;;;;;;;;;-10.80;99.90;;;;;;5110461;28;19912;-74
2022/01/13 01:37:13;;;;;;;;;;;-10.80;99.90;;;;;;5112148;28;19934;-73
2022/01/13 01:39:39;;;;;;;;;;;-10.80;99.90;;;;;;5109949;28;19931;-73
2022/01/13 01:42:04;;;;;;;;;;;-10.80;99.90;;;;;;5112130;28;19919;-73
2022/01/13 01:44:35;;;;;;;;;;;-10.80;99.90;;;;;;5112189;28;19914;-73
2022/01/13 01:47:00;;;;;;;;;;;-10.90;99.90;;;;;;5110514;28;19923;-73
2022/01/13 01:49:27;;;;;;;;;;;-10.90;99.90;;;;;;5109939;28;19915;-74
2022/01/13 01:51:57;;;;;;;;;;;-10.90;99.90;;;;;;5110338;28;19955;-74
2022/01/13 01:54:23;;;;;;;;;;;-10.90;99.90;;;;;;5110182;28;19931;-73
2022/01/13 01:56:49;;;;;;;;;;;-10.80;99.90;;;;;;5093081;28;20354;-73
2022/01/13 01:59:18;;;;;;;;;;;-10.80;99.90;;;;;;5109817;28;19962;-73
2022/01/13 02:01:44;;;;;;;;;;;-10.80;99.90;;;;;;5110594;28;19920;-74
2022/01/13 02:04:10;;;;;;;;;;;-10.80;99.90;;;;;;5111721;28;20307;-73
2022/01/13 02:06:37;;;;;;;;;;;-10.80;99.90;;;;;;5111295;28;19919;-73
2022/01/13 02:09:06;;;;;;;;;;;-10.80;99.90;;;;;;5111169;28;19972;-74
2022/01/13 02:11:40;;;;;;;;;;;-10.70;99.90;;;;;;5109805;28;19974;-74
2022/01/13 02:14:20;;;;;;;;;;;-10.70;99.90;;;;;;5111016;28;20455;-74
2022/01/13 02:16:50;;;;;;;;;;;-10.70;99.90;;;;;;5111495;28;19955;-74
2022/01/13 02:19:16;;;;;;;;;;;-10.60;99.90;;;;;;5109362;28;19912;-74
2022/01/13 02:21:41;;;;;;;;;;;-10.60;99.90;;;;;;5111132;28;20359;-73
2022/01/13 02:24:07;;;;;;;;;;;-10.50;99.90;;;;;;5109435;28;19914;-74
2022/01/13 02:26:33;;;;;;;;;;;-10.40;99.90;;;;;;5109809;28;19927;-73
2022/01/13 02:28:59;;;;;;;;;;;-10.40;99.90;;;;;;5109615;28;20355;-73
2022/01/13 02:31:26;;;;;;;;;;;-10.30;99.90;;;;;;5111314;28;19976;-73
2022/01/13 02:33:53;;;;;;;;;;;-10.30;99.90;;;;;;5110812;28;20395;-73
2022/01/13 02:36:19;;;;;;;;;;;-10.20;99.90;;;;;;5110787;28;20022;-73
2022/01/13 02:38:53;;;;;;;;;;;-10.20;99.90;;;;;;5110708;28;19914;-74
2022/01/13 02:41:19;;;;;;;;;;;-10.20;99.90;;;;;;5110980;28;19934;-73
2022/01/13 02:43:46;;;;;;;;;;;-10.10;99.90;;;;;;5110808;28;19908;-72
2022/01/13 02:49:04;;;;;;;;;;;-10.00;99.90;;;;;;5110825;28;19960;-72
2022/01/13 02:51:30;;;;;;;;;;;-10.00;99.90;;;;;;5110644;28;19935;-73
2022/01/13 02:53:56;;;;;;;;;;;-10.00;99.90;;;;;;5109068;28;19911;-74
2022/01/13 02:56:21;;;;;;;;;;;-10.00;99.90;;;;;;5110612;28;20032;-73
2022/01/13 02:58:47;;;;;;;;;;;-10.10;99.90;;;;;;5109073;28;19908;-73
2022/01/13 03:01:13;;;;;;;;;;;-10.10;99.90;;;;;;5109050;28;20331;-74
2022/01/13 03:03:40;;;;;;;;;;;-10.10;99.90;;;;;;5110372;28;19911;-75
2022/01/13 03:06:06;;;;;;;;;;;-10.10;99.90;;;;;;5109112;28;19969;-73
2022/01/13 03:08:32;;;;;;;;;;;-10.10;99.90;;;;;;5109018;28;19908;-73
2022/01/13 03:10:58;;;;;;;;;;;-10.10;99.90;;;;;;5109166;28;19923;-73
2022/01/13 03:13:24;;;;;;;;;;;-10.20;99.90;;;;;;5110298;28;20399;-73
2022/01/13 03:15:50;;;;;;;;;;;-10.20;99.90;;;;;;5109433;28;20263;-73
2022/01/13 03:18:15;;;;;;;;;;;-10.30;99.90;;;;;;5108872;28;19938;-73
2022/01/13 03:20:41;;;;;;;;;;;-10.40;99.90;;;;;;5108867;28;20294;-74
2022/01/13 03:23:06;;;;;;;;;;;-10.50;99.90;;;;;;5110564;28;19908;-73
2022/01/13 03:25:32;;;;;;;;;;;-10.50;99.90;;;;;;5109204;28;19958;-74
2022/01/13 03:28:05;;;;;;;;;;;-10.60;99.90;;;;;;5110985;28;19961;-72
2022/01/13 03:30:31;;;;;;;;;;;-10.70;99.90;;;;;;5110274;28;19919;-73
2022/01/13 03:32:59;;;;;;;;;;;-10.80;99.90;;;;;;5110326;28;20337;-73
2022/01/13 03:35:24;;;;;;;;;;;-10.80;99.90;;;;;;5110354;28;19908;-73
2022/01/13 03:37:50;;;;;;;;;;;-10.80;99.90;;;;;;5109167;28;19961;-74
2022/01/13 03:40:16;;;;;;;;;;;-10.80;99.90;;;;;;5110150;28;19919;-73
2022/01/13 03:42:41;;;;;;;;;;;-10.60;99.90;;;;;;5110824;28;20041;-74
2022/01/13 03:45:07;;;;;;;;;;;-10.90;99.90;;;;;;5110684;28;19908;-73
2022/01/13 03:47:33;;;;;;;;;;;-11.00;99.90;;;;;;5110613;28;20312;-73
2022/01/13 03:49:59;;;;;;;;;;;-11.00;99.90;;;;;;5112589;28;20375;-73
2022/01/13 03:52:24;;;;;;;;;;;-11.10;99.90;;;;;;5112654;28;19922;-72
2022/01/13 03:55:08;;;;;;;;;;;-11.10;99.90;;;;;;5112503;28;20355;-74
2022/01/13 03:57:52;;;;;;;;;;;-11.10;99.90;;;;;;5114427;28;20334;-73
2022/01/13 04:00:41;;;;;;;;;;;-11.20;99.90;;;;;;5113692;28;20303;-74
2022/01/13 04:03:07;;;;;;;;;;;-11.30;99.90;;;;;;5112451;28;20336;-73
2022/01/13 04:05:52;;;;;;;;;;;-11.30;99.90;;;;;;5113698;28;19959;-74
2022/01/13 04:08:18;;;;;;;;;;;-11.30;99.90;;;;;;5112189;28;19923;-73
2022/01/13 04:10:46;;;;;;;;;;;-11.40;99.90;;;;;;5113574;28;19908;-73
2022/01/13 04:13:23;;;;;;;;;;;-11.30;99.90;;;;;;5113570;28;19915;-72
2022/01/13 04:15:49;;;;;;;;;;;-11.40;99.90;;;;;;5113748;28;19912;-73
2022/01/13 04:18:15;;;;;;;;;;;-11.30;99.90;;;;;;5112379;28;19907;-74
2022/01/13 04:20:41;;;;;;;;;;;-11.30;99.90;;;;;;5111956;28;19934;-73
2022/01/13 04:23:06;;;;;;;;;;;-11.30;99.90;;;;;;5112121;28;19919;-74
2022/01/13 04:25:34;;;;;;;;;;;-10.10;99.90;;;;;;5112137;28;20331;-73
2022/01/13 04:28:02;;;;;;;;;;;-11.20;99.90;;;;;;5111772;28;20357;-73
2022/01/13 04:33:08;;;;;;;;;;;-11.30;99.90;;;;;;5113511;28;19915;-73
2022/01/13 04:35:34;;;;;;;;;;;-11.30;99.90;;;;;;5113231;28;19922;-74
2022/01/13 04:38:00;;;;;;;;;;;-11.30;99.90;;;;;;5113616;28;19955;-74
2022/01/13 04:40:25;;;;;;;;;;;-11.30;99.90;;;;;;5111662;28;19946;-74
2022/01/13 04:42:54;;;;;;;;;;;-11.30;99.90;;;;;;5112073;28;19923;-74
2022/01/13 04:45:21;;;;;;;;;;;-11.30;99.90;;;;;;5111710;28;19911;-73
2022/01/13 04:47:48;;;;;;;;;;;-11.30;99.90;;;;;;5113766;28;20369;-73
2022/01/13 04:50:13;;;;;;;;;;;-11.30;99.90;;;;;;5113276;28;19998;-74
2022/01/13 04:52:39;;;;;;;;;;;-11.40;99.90;;;;;;5113333;28;20014;-74
2022/01/13 04:55:10;;;;;;;;;;;-11.30;99.90;;;;;;5112823;28;20498;-73
2022/01/13 04:57:36;;;;;;;;;;;-11.30;99.90;;;;;;5111480;28;19959;-74
2022/01/13 05:00:04;;;;;;;;;;;-11.30;99.90;;;;;;5112692;28;19954;-73
2022/01/13 05:02:29;;;;;;;;;;;-11.30;99.90;;;;;;5111421;28;19950;-74
2022/01/13 05:04:55;;;;;;;;;;;-11.30;99.90;;;;;;5112291;28;20418;-72
2022/01/13 05:07:20;;;;;;;;;;;-11.20;99.90;;;;;;5112929;28;19916;-74
2022/01/13 05:09:46;;;;;;;;;;;-9.20;99.90;;;;;;5111032;28;19930;-73
2022/01/13 05:12:11;;;;;;;;;;;-11.10;99.90;;;;;;5112609;28;19916;-73
2022/01/13 05:14:37;;;;;;;;;;;-11.10;99.90;;;;;;5112393;28;19922;-73
2022/01/13 05:19:35;;;;;;;;;;;-11.00;99.90;;;;;;5112188;28;19915;-73
2022/01/13 05:24:38;;;;;;;;;;;-10.90;99.90;;;;;;5112199;28;20256;-73
2022/01/13 05:27:04;;;;;;;;;;;-11.00;99.90;;;;;;5111927;28;19931;-74
2022/01/13 05:29:30;;;;;;;;;;;-11.00;99.90;;;;;;5110974;28;19912;-73
2022/01/13 05:31:55;;;;;;;;;;;-11.00;99.90;;;;;;5112506;28;19993;-73
2022/01/13 05:34:21;;;;;;;;;;;-11.10;99.90;;;;;;5111870;28;19912;-73
2022/01/13 05:36:47;;;;;;;;;;;-11.10;99.90;;;;;;5112274;28;19919;-73
2022/01/13 05:39:12;;;;;;;;;;;-11.20;99.90;;;;;;5111808;28;19920;-73
2022/01/13 05:41:38;;;;;;;;;;;-11.20;99.90;;;;;;5110477;28;19920;-73
2022/01/13 05:44:04;;;;;;;;;;;-11.20;99.90;;;;;;5111922;28;20340;-74
2022/01/13 05:46:30;;;;;;;;;;;-11.20;99.90;;;;;;5111803;28;19968;-73
2022/01/13 05:48:56;;;;;;;;;;;-11.20;99.90;;;;;;5111540;28;20470;-74
2022/01/13 05:51:22;;;;;;;;;;;-11.20;99.90;;;;;;5111425;28;19923;-73
2022/01/13 05:53:48;;;;;;;;;;;-11.20;99.90;;;;;;5109978;28;19911;-73
2022/01/13 05:56:14;;;;;;;;;;;-11.20;99.90;;;;;;5112166;28;19916;-73
2022/01/13 05:58:40;;;;;;;;;;;-11.00;99.90;;;;;;5110903;28;20040;-73
2022/01/13 06:01:06;;;;;;;;;;;-9.40;99.90;;;;;;5111489;28;19995;-73
2022/01/13 06:03:31;;;;;;;;;;;-11.30;99.90;;;;;;5109703;28;20002;-73
2022/01/13 06:05:57;;;;;;;;;;;-11.30;99.90;;;;;;5109845;28;19919;-73
2022/01/13 06:08:23;;;;;;;;;;;-11.30;99.90;;;;;;5111157;28;19956;-73
2022/01/13 06:10:48;;;;;;;;;;;-11.20;99.90;;;;;;5111119;28;19908;-73
2022/01/13 06:13:14;;;;;;;;;;;-11.20;99.90;;;;;;5109780;28;19911;-73
2022/01/13 06:15:40;;;;;;;;;;;-11.20;99.90;;;;;;5109810;28;19934;-74
2022/01/13 06:18:10;;;;;;;;;;;-11.10;99.90;;;;;;5109585;28;19962;-73
2022/01/13 06:20:35;;;;;;;;;;;-11.10;99.90;;;;;;5091069;28;19975;-68
2022/01/13 06:23:02;;;;;;;;;;;-10.30;99.90;;;;;;5084767;28;19952;-68
2022/01/13 06:25:30;;;;;;;;;;;-10.90;99.90;;;;;;5089886;28;19915;-66
2022/01/13 06:27:56;;;;;;;;;;;-10.80;99.90;;;;;;5077060;28;20476;-64
2022/01/13 06:30:22;;;;;;;;;;;-10.70;99.90;;;;;;5075857;28;19916;-64
2022/01/13 06:32:47;;;;;;;;;;;-10.60;99.90;;;;;;5095839;28;19916;-66
2022/01/13 06:35:13;;;;;;;;;;;-10.50;99.90;;;;;;5084093;28;19909;-64
2022/01/13 06:37:40;;;;;;;;;;;-10.10;99.90;;;;;;5099380;28;19928;-65
2022/01/13 06:40:07;;;;;;;;;;;-10.30;99.90;;;;;;5081961;28;19947;-67
2022/01/13 06:42:33;;;;;;;;;;;-10.20;99.90;;;;;;5072947;28;19921;-67
2022/01/13 06:44:58;;;;;;;;;;;-10.10;99.90;;;;;;5074451;28;19920;-68
2022/01/13 06:47:24;;;;;;;;;;;-10.10;99.90;;;;;;5075757;28;19917;-66
2022/01/13 06:49:50;;;;;;;;;;;-9.90;99.90;;;;;;5082404;28;20370;-66
2022/01/13 06:52:17;;;;;;;;;;;-10.00;99.90;;;;;;5080420;28;20324;-67
2022/01/13 06:54:42;;;;;;;;;;;-9.90;99.90;;;;;;5072051;28;19912;-66
2022/01/13 06:57:08;;;;;;;;;;;-9.80;99.90;;;;;;5076180;28;19921;-65
2022/01/13 06:59:34;;;;;;;;;;;-9.80;99.90;;;;;;5069307;28;20275;-65
2022/01/13 07:02:01;;;;;;;;;;;-11.00;99.90;;;;;;5082715;28;19924;-65
2022/01/13 07:04:27;;;;;;;;;;;-9.70;99.90;;;;;;5077457;28;20253;-67
2022/01/13 07:06:53;;;;;;;;;;;-9.60;99.90;;;;;;5102903;28;20027;-64
2022/01/13 07:09:19;;;;;;;;;;;-9.60;99.90;;;;;;5099835;28;19926;-63
2022/01/13 07:11:45;;;;;;;;;;;-9.40;99.90;;;;;;5077780;28;20003;-63
2022/01/13 07:14:11;;;;;;;;;;;-9.40;99.90;;;;;;5073247;28;20689;-64
2022/01/13 07:16:36;;;;;;;;;;;-9.20;99.90;;;;;;5074910;28;19925;-65
2022/01/13 07:19:05;;;;;;;;;;;-9.30;99.90;;;;;;5070443;28;19913;-64
2022/01/13 07:21:32;;;;;;;;;;;-9.20;99.90;;;;;;5074238;28;19928;-65
2022/01/13 07:23:58;;;;;;;;;;;-9.10;99.90;;;;;;5076733;28;19921;-63
2022/01/13 07:26:23;;;;;;;;;;;-9.10;99.90;;;;;;5093851;28;19943;-64
2022/01/13 07:28:49;;;;;;;;;;;-7.30;99.90;;;;;;5074325;28;19923;-63
2022/01/13 07:31:15;;;;;;;;;;;-8.90;99.90;;;;;;5092897;28;19917;-64
2022/01/13 07:33:41;;;;;;;;;;;-8.80;99.90;;;;;;5074472;28;20572;-66
2022/01/13 07:36:07;;;;;;;;;;;-8.70;99.90;;;;;;5094616;28;20422;-64
2022/01/13 07:38:32;;;;;;;;;;;-8.60;99.90;;;;;;5083308;28;20047;-66
2022/01/13 07:40:58;;;;;;;;;;;-8.50;99.90;;;;;;5090320;28;19955;-65
2022/01/13 07:43:24;;;;;;;;;;;-8.40;99.90;;;;;;5078809;28;19946;-65
2022/01/13 07:45:50;;;;;;;;;;;-8.30;99.90;;;;;;5080132;28;19916;-64
2022/01/13 07:48:16;;;;;;;;;;;-8.20;99.90;;;;;;5075838;28;20347;-65
2022/01/13 07:50:42;;;;;;;;;;;-10.20;99.90;;;;;;5082040;28;19990;-66
2022/01/13 07:53:07;;;;;;;;;;;-8.10;99.90;;;;;;5081702;28;19965;-64
2022/01/13 07:55:34;;;;;;;;;;;-8.00;99.90;;;;;;5092826;28;19912;-64
2022/01/13 07:58:00;;;;;;;;;;;-7.80;99.90;;;;;;5081088;28;19917;-63
2022/01/13 08:00:25;;;;;;;;;;;-7.80;99.90;;;;;;5088772;28;19926;-64
2022/01/13 08:02:51;;;;;;;;;;;-7.10;99.90;;;;;;5090539;28;20374;-65
2022/01/13 08:05:16;;;;;;;;;;;-7.70;99.90;;;;;;5086606;28;19912;-66
2022/01/13 08:07:42;;;;;;;;;;;-7.70;99.90;;;;;;5082676;28;19985;-65
2022/01/13 08:10:08;;;;;;;;;;;-7.60;99.90;;;;;;5085141;28;19946;-63
2022/01/13 08:12:34;;;;;;;;;;;-7.50;99.90;;;;;;5092584;28;19935;-65
2022/01/13 08:14:59;;;;;;;;;;;-7.40;99.90;;;;;;5087204;28;19911;-66
2022/01/13 08:20:09;;;;;;;;;;;-7.20;99.90;;;;;;5084493;28;20330;-64
2022/01/13 08:22:35;;;;;;;;;;;-7.10;99.90;;;;;;5084948;28;19920;-65
2022/01/13 08:25:01;;;;;;;;;;;-7.00;99.90;;;;;;5087372;28;20362;-65
2022/01/13 08:27:26;;;;;;;;;;;-6.80;99.90;;;;;;5076180;28;20016;-65
2022/01/13 08:29:52;;;;;;;;;;;-6.90;99.90;;;;;;5081906;28;20318;-65
2022/01/13 08:32:18;;;;;;;;;;;-6.80;99.90;;;;;;5084096;28;20518;-64
2022/01/13 08:34:44;;;;;;;;;;;-6.70;99.90;;;;;;5082216;28;19916;-66
2022/01/13 08:37:10;;;;;;;;;;;-6.70;99.90;;;;;;5086295;28;19920;-66
2022/01/13 08:39:42;;;;;;;;;;;-6.60;99.90;;;;;;5090348;28;19920;-67
2022/01/13 08:42:08;;;;;;;;;;;-6.40;99.90;;;;;;5085720;28;19920;-65
2022/01/13 08:44:33;;;;;;;;;;;-6.60;99.90;;;;;;5079983;28;19939;-65
2022/01/13 08:46:59;;;;;;;;;;;-5.20;99.90;;;;;;5091788;28;20378;-64
2022/01/13 08:49:24;;;;;;;;;;;-6.40;99.90;;;;;;5083870;28;20412;-66
2022/01/13 08:51:51;;;;;;;;;;;-6.30;99.90;;;;;;5088623;28;19952;-65
2022/01/13 08:54:19;;;;;;;;;;;-6.20;99.90;;;;;;5081040;28;19958;-68
2022/01/13 08:56:45;;;;;;;;;;;-6.10;99.90;;;;;;5085337;28;19939;-68
2022/01/13 08:59:11;;;;;;;;;;;-6.10;99.90;;;;;;5085115;28;19912;-66
2022/01/13 09:01:36;;;;;;;;;;;-6.00;99.90;;;;;;5091482;28;19986;-66
2022/01/13 09:04:02;;;;;;;;;;;-6.00;99.90;;;;;;5081547;28;19999;-65
2022/01/13 09:06:28;;;;;;;;;;;-6.00;99.90;;;;;;5092429;28;20479;-65
2022/01/13 09:08:53;;;;;;;;;;;-6.00;99.90;;;;;;5082481;28;19916;-67
2022/01/13 09:11:19;;;;;;;;;;;-6.00;99.90;;;;;;5079495;28;19962;-67
2022/01/13 09:13:44;;;;;;;;;;;-6.00;99.90;;;;;;5075442;28;19935;-67
2022/01/13 09:16:14;;;;;;;;;;;-6.00;99.90;;;;;;5081326;28;19928;-69
2022/01/13 09:21:11;;;;;;;;;;;-5.60;99.90;;;;;;5078594;28;20380;-67
2022/01/13 09:23:37;;;;;;;;;;;-5.90;99.90;;;;;;5081800;28;19958;-66
2022/01/13 09:26:03;;;;;;;;;;;-5.80;99.90;;;;;;5080388;28;20042;-66
2022/01/13 09:28:29;;;;;;;;;;;-5.80;99.90;;;;;;5081930;28;20033;-67
2022/01/13 09:30:55;;;;;;;;;;;-5.50;99.90;;;;;;5075833;28;20017;-67
2022/01/13 09:33:21;;;;;;;;;;;-5.70;99.90;;;;;;5080039;28;19920;-66
2022/01/13 09:35:47;;;;;;;;;;;-5.60;99.90;;;;;;5082430;28;19923;-67
2022/01/13 09:38:13;;;;;;;;;;;-5.60;99.90;;;;;;5080644;28;20751;-66
2022/01/13 09:40:42;;;;;;;;;;;-5.60;99.90;;;;;;5078866;28;19966;-66
2022/01/13 09:43:08;;;;;;;;;;;-5.60;99.90;;;;;;5071709;28;19983;-67
2022/01/13 09:45:34;;;;;;;;;;;-5.60;99.90;;;;;;5076880;28;20018;-66
2022/01/13 09:47:59;;;;;;;;;;;-5.50;99.90;;;;;;5080309;28;20021;-67
2022/01/13 09:50:25;;;;;;;;;;;-5.40;99.90;;;;;;5073579;28;19927;-67
2022/01/13 09:52:51;;;;;;;;;;;-5.30;99.90;;;;;;5075942;28;19954;-68
2022/01/13 09:55:17;;;;;;;;;;;-5.20;99.90;;;;;;5084930;28;20553;-67
2022/01/13 09:57:43;;;;;;;;;;;-5.30;99.90;;;;;;5075097;28;19924;-68
2022/01/13 10:00:10;;;;;;;;;;;-5.20;99.90;;;;;;5077652;28;19920;-67
2022/01/13 10:02:36;;;;;;;;;;;-5.20;99.90;;;;;;5083614;28;19996;-65
2022/01/13 10:05:01;;;;;;;;;;;-5.10;99.90;;;;;;5079292;28;19983;-67
2022/01/13 10:07:31;;;;;;;;;;;-5.10;99.90;;;;;;5076788;28;20706;-67
2022/01/13 10:09:59;;;;;;;;;;;-5.10;99.90;;;;;;5076198;28;19959;-66
2022/01/13 10:12:48;;;;;;;;;;;-5.10;99.90;;;;;;5085140;28;19924;-67
2022/01/13 10:18:02;;;;;;;;;;;-5.70;99.90;;;;;;5088476;28;19968;-67
2022/01/13 10:20:29;;;;;;;;;;;-4.90;99.90;;;;;;5080726;28;20354;-65
2022/01/13 10:22:54;;;;;;;;;;;-4.90;99.90;;;;;;5088310;28;21230;-67
2022/01/13 10:25:24;;;;;;;;;;;-4.90;99.90;;;;;;5084856;28;19919;-66
2022/01/13 10:27:50;;;;;;;;;;;-4.90;99.90;;;;;;5079159;28;19920;-66
2022/01/13 10:30:17;;;;;;;;;;;-4.80;99.90;;;;;;5074227;28;19916;-68
2022/01/13 10:32:44;;;;;;;;;;;-4.80;99.90;;;;;;5084669;28;19954;-67
2022/01/13 10:35:14;;;;;;;;;;;-4.80;99.90;;;;;;5074354;28;20379;-66
2022/01/13 10:37:39;;;;;;;;;;;-4.70;99.90;;;;;;5075205;28;19920;-67
2022/01/13 10:40:09;;;;;;;;;;;-4.60;99.90;;;;;;5077788;28;19920;-67
2022/01/13 10:45:08;;;;;;;;;;;-4.50;99.90;;;;;;5075497;28;20420;-65
2022/01/13 10:47:34;;;;;;;;;;;-4.40;99.90;;;;;;5072729;28;20308;-67
2022/01/13 10:50:04;;;;;;;;;;;-4.30;99.90;;;;;;5081337;28;20005;-66
2022/01/13 10:52:31;;;;;;;;;;;-4.10;99.90;;;;;;5082876;28;19920;-66
2022/01/13 10:55:00;;;;;;;;;;;-4.00;99.90;;;;;;5081650;28;20034;-66
2022/01/13 10:57:27;;;;;;;;;;;-4.00;99.90;;;;;;5079063;28;20329;-64
2022/01/13 10:59:52;;;;;;;;;;;-3.90;99.90;;;;;;5080795;28;19924;-64
2022/01/13 11:02:19;;;;;;;;;;;-3.90;99.90;;;;;;5089645;28;19920;-64
2022/01/13 11:04:45;;;;;;;;;;;-3.90;99.90;;;;;;5081529;28;20352;-68
2022/01/13 11:07:12;;;;;;;;;;;-3.90;99.90;;;;;;5076669;28;19974;-65
2022/01/13 11:09:42;;;;;;;;;;;-3.80;99.90;;;;;;5079876;28;19916;-64
2022/01/13 11:12:09;;;;;;;;;;;-3.80;99.90;;;;;;5089390;28;19916;-66
2022/01/13 11:14:41;;;;;;;;;;;-3.70;99.90;;;;;;5081912;28;19912;-67
2022/01/13 11:17:07;;;;;;;;;;;-3.60;99.90;;;;;;5081517;28;19951;-67
2022/01/13 11:19:33;;;;;;;;;;;-3.60;99.90;;;;;;5079457;28;20401;-67
2022/01/13 11:21:59;;;;;;;;;;;-3.60;99.90;;;;;;5082738;28;19924;-66
2022/01/13 11:24:25;;;;;;;;;;;-3.70;99.90;;;;;;5085857;28;20313;-65
2022/01/13 11:26:50;;;;;;;;;;;-3.60;99.90;;;;;;5088186;28;20392;-66
2022/01/13 11:29:17;;;;;;;;;;;-3.60;99.90;;;;;;5083735;28;19916;-65
2022/01/13 11:31:43;;;;;;;;;;;-3.60;99.90;;;;;;5079194;28;20289;-65
2022/01/13 11:34:09;;;;;;;;;;;-3.60;99.90;;;;;;5080091;28;19913;-65
2022/01/13 11:36:35;;;;;;;;;;;-3.50;99.90;;;;;;5085792;28;19962;-66
2022/01/13 11:39:03;;;;;;;;;;;-3.40;99.90;;;;;;5090461;28;19932;-67
2022/01/13 11:41:28;;;;;;;;;;;-3.40;99.90;;;;;;5082009;28;19927;-67
2022/01/13 11:44:10;;;;;;;;;;;-3.30;99.90;;;;;;5079951;28;19927;-67
2022/01/13 11:46:44;;;;;;;;;;;-3.20;99.90;;;;;;5081414;28;20309;-66
2022/01/13 11:49:16;;;;;;;;;;;-3.10;99.90;;;;;;5086011;28;19956;-66
2022/01/13 11:51:43;;;;;;;;;;;-3.00;99.90;;;;;;5089153;28;20312;-67
2022/01/13 11:54:09;;;;;;;;;;;-3.00;99.90;;;;;;5079525;28;20358;-66
2022/01/13 11:56:35;;;;;;;;;;;-3.00;99.90;;;;;;5087052;28;20260;-67
2022/01/13 11:59:05;;;;;;;;;;;-2.90;99.90;;;;;;5092847;28;19915;-67
2022/01/13 12:01:32;;;;;;;;;;;-2.90;99.90;;;;;;5093597;28;20349;-68
2022/01/13 12:04:01;;;;;;;;;;;-2.80;99.90;;;;;;5085170;28;20007;-67
2022/01/13 12:06:56;;;;;;;;;;;-2.90;99.90;;;;;;5080550;28;19928;-69
2022/01/13 12:09:21;;;;;;;;;;;-2.80;99.90;;;;;;5072045;28;19951;-69
2022/01/13 12:11:54;;;;;;;;;;;-2.80;99.90;;;;;;5089078;28;19952;-65
2022/01/13 12:14:22;;;;;;;;;;;-3.60;99.90;;;;;;5087255;28;19917;-66
2022/01/13 12:16:51;;;;;;;;;;;-2.80;99.90;;;;;;5079270;28;19970;-67
2022/01/13 12:19:27;;;;;;;;;;;-2.80;99.90;;;;;;5080818;28;20092;-69
2022/01/13 12:22:02;;;;;;;;;;;-2.80;99.90;;;;;;5078231;28;20360;-67
2022/01/13 12:24:43;;;;;;;;;;;-2.80;99.90;;;;;;5086577;28;19947;-68
2022/01/13 12:27:08;;;;;;;;;;;-2.80;99.90;;;;;;5094272;28;19923;-66
2022/01/13 12:29:42;;;;;;;;;;;-2.80;99.90;;;;;;5082344;28;19916;-68
2022/01/13 12:32:08;;;;;;;;;;;-2.70;99.90;;;;;;5082816;28;20063;-68
2022/01/13 12:34:35;;;;;;;;;;;-2.70;99.90;;;;;;5079417;28;19920;-68
2022/01/13 12:37:13;;;;;;;;;;;-2.70;99.90;;;;;;5081478;28;19924;-68
2022/01/13 12:39:49;;;;;;;;;;;-2.70;99.90;;;;;;5078914;28;19962;-67
2022/01/13 12:42:20;;;;;;;;;;;-2.80;99.90;;;;;;5080640;28;19968;-67
2022/01/13 12:47:30;;;;;;;;;;;-2.80;99.90;;;;;;5078092;28;19927;-68
2022/01/13 12:49:55;;;;;;;;;;;-2.70;99.90;;;;;;5076408;28;19920;-70
2022/01/13 12:52:22;;;;;;;;;;;-2.70;99.90;;;;;;5086149;28;19925;-68
2022/01/13 12:54:48;;;;;;;;;;;-2.60;99.90;;;;;;5084141;28;19912;-69
2022/01/13 12:57:15;;;;;;;;;;;-2.60;99.90;;;;;;5086021;28;19927;-68
2022/01/13 12:59:40;;;;;;;;;;;-2.60;99.90;;;;;;5076739;28;19958;-68
2022/01/13 13:02:07;;;;;;;;;;;-2.50;99.90;;;;;;5080884;28;20011;-68
2022/01/13 13:04:36;;;;;;;;;;;-2.50;99.90;;;;;;5084594;28;19913;-67
2022/01/13 13:07:02;;;;;;;;;;;-2.50;99.90;;;;;;5079362;28;19920;-67
2022/01/13 13:09:30;;;;;;;;;;;-2.50;99.90;;;;;;5075005;28;19924;-68
2022/01/13 13:11:58;;;;;;;;;;;-2.50;99.90;;;;;;5072500;28;19931;-67
2022/01/13 13:14:33;;;;;;;;;;;-2.50;99.90;;;;;;5072216;28;20018;-67
2022/01/13 13:16:58;;;;;;;;;;;-2.40;99.90;;;;;;5072641;28;19969;-67
2022/01/13 13:19:24;;;;;;;;;;;-2.40;99.90;;;;;;5088884;28;20377;-68
2022/01/13 13:21:52;;;;;;;;;;;-2.40;99.90;;;;;;5084860;28;19920;-66
2022/01/13 13:24:22;;;;;;;;;;;-2.40;99.90;;;;;;5079142;28;19916;-68
2022/01/13 13:26:48;;;;;;;;;;;-2.40;99.90;;;;;;5075864;28;19920;-67
2022/01/13 13:29:21;;;;;;;;;;;-0.30;99.90;;;;;;5086725;28;19912;-70
2022/01/13 13:31:48;;;;;;;;;;;-2.40;99.90;;;;;;5072944;28;19916;-67
2022/01/13 13:34:15;;;;;;;;;;;-2.40;99.90;;;;;;5084661;28;19923;-67
2022/01/13 13:36:42;;;;;;;;;;;-2.40;99.90;;;;;;5079952;28;19920;-66
2022/01/13 13:39:09;;;;;;;;;;;-2.30;99.90;;;;;;5083913;28;19951;-68
2022/01/13 13:41:36;;;;;;;;;;;-2.30;99.90;;;;;;5079289;28;19931;-66
2022/01/13 13:44:02;;;;;;;;;;;-2.30;99.90;;;;;;5087461;28;19916;-68
2022/01/13 13:46:28;;;;;;;;;;;-2.20;99.90;;;;;;5087253;28;19938;-69
2022/01/13 13:48:54;;;;;;;;;;;-2.50;99.90;;;;;;5084284;28;20379;-68
2022/01/13 13:51:20;;;;;;;;;;;-2.20;99.90;;;;;;5075205;28;19916;-67
2022/01/13 13:54:05;;;;;;;;;;;-2.20;99.90;;;;;;5076787;28;19963;-66
2022/01/13 13:56:30;;;;;;;;;;;-2.20;99.90;;;;;;5076671;28;19923;-67
2022/01/13 13:58:56;;;;;;;;;;;-2.20;99.90;;;;;;5087205;28;19916;-67
2022/01/13 14:01:23;;;;;;;;;;;-2.20;99.90;;;;;;5086837;28;19992;-71
2022/01/13 14:03:48;;;;;;;;;;;-2.20;99.90;;;;;;5072084;28;20413;-68
2022/01/13 14:06:32;;;;;;;;;;;-2.10;99.90;;;;;;5072834;28;19920;-68
2022/01/13 14:08:58;;;;;;;;;;;-2.10;99.90;;;;;;5085461;28;19966;-67
2022/01/13 14:11:23;;;;;;;;;;;-2.10;99.90;;;;;;5091700;28;19947;-68
2022/01/13 14:14:07;;;;;;;;;;;-2.10;99.90;;;;;;5091236;28;20003;-67
2022/01/13 14:16:33;;;;;;;;;;;-2.00;99.90;;;;;;5086123;28;19920;-67
2022/01/13 14:19:04;;;;;;;;;;;-2.10;99.90;;;;;;5080535;28;19975;-67
2022/01/13 14:21:43;;;;;;;;;;;-2.10;99.90;;;;;;5093505;28;19985;-67
2022/01/13 14:24:09;;;;;;;;;;;-2.10;99.90;;;;;;5098690;28;20684;-66
2022/01/13 14:26:34;;;;;;;;;;;-2.10;99.90;;;;;;5083553;28;19984;-67
2022/01/13 14:29:00;;;;;;;;;;;-2.00;99.90;;;;;;5082502;28;19978;-67
2022/01/13 14:31:33;;;;;;;;;;;-1.90;99.90;;;;;;5070762;28;20306;-69
2022/01/13 14:33:59;;;;;;;;;;;-1.90;99.90;;;;;;5081951;28;19931;-68
2022/01/13 14:36:26;;;;;;;;;;;-1.90;99.90;;;;;;5074214;28;20511;-67
2022/01/13 14:38:51;;;;;;;;;;;-1.90;99.90;;;;;;5078672;28;19920;-67
2022/01/13 14:41:28;;;;;;;;;;;-2.00;99.90;;;;;;5077720;28;21420;-68
2022/01/13 14:44:07;;;;;;;;;;;-1.90;99.90;;;;;;5078164;28;19918;-67
2022/01/13 14:46:34;;;;;;;;;;;-1.90;99.90;;;;;;5079205;28;20010;-66
2022/01/13 14:49:00;;;;;;;;;;;-1.90;99.90;;;;;;5074566;28;19916;-66
2022/01/13 14:51:26;;;;;;;;;;;-1.90;99.90;;;;;;5080848;28;20460;-68